sensor_id;sensor_type;location;lat;lon;timestamp;temperature;humidity
2967;DHT22;1493;51.496;7.210;2022-07-30T00:01:04;19.40;99.90
2967;DHT22;1493;51.496;7.210;2022-07-30T00:03:33;19.40;99.90
2967;DHT22;1493;51.496;7.210;2022-07-30T00:06:00;19.30;99.90
2967;DHT22;1493;51.496;7.210;2022-07-30T00:08:27;19.30;99.90
2967;DHT22;1493;51.496;7.210;2022-07-30T00:10:53;19.30;99.90
2967;DHT22;1493;51.496;7.210;2022-07-30T00:13:20;19.20;99.90
2967;DHT22;1493;51.496;7.210;2022-07-30T00:15:47;19.20;99.90
2967;DHT22;1493;51.496;7.210;2022-07-30T00:18:14;19.10;99.90
2967;DHT22;1493;51.496;7.210;2022-07-30T00:20:42;19.10;99.90
2967;DHT22;1493;51.496;7.210;2022-07-30T00:23:09;19.00;99.90
2967;DHT22;1493;51.496;7.210;2022-07-30T00:25:36;18.90;99.90
2967;DHT22;1493;51.496;7.210;2022-07-30T00:28:03;18.90;99.90
2967;DHT22;1493;51.496;7.210;2022-07-30T00:30:30;18.90;99.90
2967;DHT22;1493;51.496;7.210;2022-07-30T00:32:57;18.80;99.90
2967;DHT22;1493;51.496;7.210;2022-07-30T00:35:24;18.80;99.90
2967;DHT22;1493;51.496;7.210;2022-07-30T00:37:52;18.70;99.90
2967;DHT22;1493;51.496;7.210;2022-07-30T00:40:19;18.70;99.90
2967;DHT22;1493;51.496;7.210;2022-07-30T00:42:47;18.60;99.90
2967;DHT22;1493;51.496;7.210;2022-07-30T00:45:14;18.60;99.90
2967;DHT22;1493;51.496;7.210;2022-07-30T00:47:42;18.60;99.90
2967;DHT22;1493;51.496;7.210;2022-07-30T00:50:11;18.50;99.90
2967;DHT22;1493;51.496;7.210;2022-07-30T00:52:39;18.50;99.90
2967;DHT22;1493;51.496;7.210;2022-07-30T00:55:10;18.50;99.90
2967;DHT22;1493;51.496;7.210;2022-07-30T00:57:37;18.50;99.90
2967;DHT22;1493;51.496;7.210;2022-07-30T01:00:06;18.40;99.90
2967;DHT22;1493;51.496;7.210;2022-07-30T01:02:34;18.40;99.90
2967;DHT22;1493;51.496;7.210;2022-07-30T01:05:00;18.30;99.90
2967;DHT22;1493;51.496;7.210;2022-07-30T01:07:27;18.30;99.90
2967;DHT22;1493;51.496;7.210;2022-07-30T01:09:55;18.20;99.90
2967;DHT22;1493;51.496;7.210;2022-07-30T01:12:25;18.20;99.90
2967;DHT22;1493;51.496;7.210;2022-07-30T01:14:53;18.20;99.90
2967;DHT22;1493;51.496;7.210;2022-07-30T01:17:21;18.10;99.90
2967;DHT22;1493;51.496;7.210;2022-07-30T01:19:48;18.10;99.90
2967;DHT22;1493;51.496;7.210;2022-07-30T01:22:24;18.10;99.90
2967;DHT22;1493;51.496;7.210;2022-07-30T01:24:57;18.00;99.90
2967;DHT22;1493;51.496;7.210;2022-07-30T01:27:30;18.00;99.90
2967;DHT22;1493;51.496;7.210;2022-07-30T01:30:00;18.00;99.90
2967;DHT22;1493;51.496;7.210;2022-07-30T01:32:28;18.00;99.90
2967;DHT22;1493;51.496;7.210;2022-07-30T01:34:58;18.00;99.90
2967;DHT22;1493;51.496;7.210;2022-07-30T01:37:27;17.90;99.90
2967;DHT22;1493;51.496;7.210;2022-07-30T01:39:55;17.90;99.90
2967;DHT22;1493;51.496;7.210;2022-07-30T01:42:23;17.90;99.90
2967;DHT22;1493;51.496;7.210;2022-07-30T01:44:53;17.80;99.90
2967;DHT22;1493;51.496;7.210;2022-07-30T01:47:22;17.80;99.90
2967;DHT22;1493;51.496;7.210;2022-07-30T01:49:52;17.70;99.90
2967;DHT22;1493;51.496;7.210;2022-07-30T01:52:19;17.70;99.90
2967;DHT22;1493;51.496;7.210;2022-07-30T01:54:49;17.70;99.90
2967;DHT22;1493;51.496;7.210;2022-07-30T01:57:19;17.60;99.90
2967;DHT22;1493;51.496;7.210;2022-07-30T01:59:49;17.60;99.90
2967;DHT22;1493;51.496;7.210;2022-07-30T02:02:17;17.60;99.90
2967;DHT22;1493;51.496;7.210;2022-07-30T02:04:45;17.50;99.90
2967;DHT22;1493;51.496;7.210;2022-07-30T02:07:15;17.50;99.90
2967;DHT22;1493;51.496;7.210;2022-07-30T02:09:51;17.40;99.90
2967;DHT22;1493;51.496;7.210;2022-07-30T02:12:21;17.40;99.90
2967;DHT22;1493;51.496;7.210;2022-07-30T02:15:06;17.40;99.90
2967;DHT22;1493;51.496;7.210;2022-07-30T02:17:42;17.40;99.90
2967;DHT22;1493;51.496;7.210;2022-07-30T02:20:11;17.30;99.90
2967;DHT22;1493;51.496;7.210;2022-07-30T02:22:41;17.30;99.90
2967;DHT22;1493;51.496;7.210;2022-07-30T02:25:14;17.30;99.90
2967;DHT22;1493;51.496;7.210;2022-07-30T02:27:44;17.30;99.90
2967;DHT22;1493;51.496;7.210;2022-07-30T02:30:14;17.30;99.90
2967;DHT22;1493;51.496;7.210;2022-07-30T02:32:43;17.20;99.90
2967;DHT22;1493;51.496;7.210;2022-07-30T02:35:16;17.20;99.90
2967;DHT22;1493;51.496;7.210;2022-07-30T02:37:47;17.20;99.90
2967;DHT22;1493;51.496;7.210;2022-07-30T02:40:16;17.20;99.90
2967;DHT22;1493;51.496;7.210;2022-07-30T02:42:45;17.10;99.90
2967;DHT22;1493;51.496;7.210;2022-07-30T02:45:15;17.10;99.90
2967;DHT22;1493;51.496;7.210;2022-07-30T02:47:45;17.10;99.90
2967;DHT22;1493;51.496;7.210;2022-07-30T02:50:15;17.10;99.90
2967;DHT22;1493;51.496;7.210;2022-07-30T02:52:44;17.10;99.90
2967;DHT22;1493;51.496;7.210;2022-07-30T02:55:11;17.10;99.90
2967;DHT22;1493;51.496;7.210;2022-07-30T02:57:41;17.00;99.90
2967;DHT22;1493;51.496;7.210;2022-07-30T03:00:09;17.00;99.90
2967;DHT22;1493;51.496;7.210;2022-07-30T03:02:38;16.90;99.90
2967;DHT22;1493;51.496;7.210;2022-07-30T03:05:07;16.90;99.90
2967;DHT22;1493;51.496;7.210;2022-07-30T03:07:35;16.90;99.90
2967;DHT22;1493;51.496;7.210;2022-07-30T03:10:04;16.90;99.90
2967;DHT22;1493;51.496;7.210;2022-07-30T03:12:33;16.90;99.90
2967;DHT22;1493;51.496;7.210;2022-07-30T03:15:00;16.90;99.90
2967;DHT22;1493;51.496;7.210;2022-07-30T03:17:32;16.90;99.90
2967;DHT22;1493;51.496;7.210;2022-07-30T03:20:02;16.90;99.90
2967;DHT22;1493;51.496;7.210;2022-07-30T03:22:31;16.90;99.90
2967;DHT22;1493;51.496;7.210;2022-07-30T03:25:01;16.80;99.90
2967;DHT22;1493;51.496;7.210;2022-07-30T03:27:30;16.80;99.90
2967;DHT22;1493;51.496;7.210;2022-07-30T03:29:58;16.80;99.90
2967;DHT22;1493;51.496;7.210;2022-07-30T03:32:27;16.80;99.90
2967;DHT22;1493;51.496;7.210;2022-07-30T03:34:55;16.80;99.90
2967;DHT22;1493;51.496;7.210;2022-07-30T03:37:23;16.80;99.90
2967;DHT22;1493;51.496;7.210;2022-07-30T03:39:52;16.70;99.90
2967;DHT22;1493;51.496;7.210;2022-07-30T03:42:20;16.70;99.90
2967;DHT22;1493;51.496;7.210;2022-07-30T03:44:47;16.70;99.90
2967;DHT22;1493;51.496;7.210;2022-07-30T03:47:16;16.70;99.90
2967;DHT22;1493;51.496;7.210;2022-07-30T03:49:44;16.70;99.90
2967;DHT22;1493;51.496;7.210;2022-07-30T03:52:11;16.70;99.90
2967;DHT22;1493;51.496;7.210;2022-07-30T03:54:38;16.70;99.90
2967;DHT22;1493;51.496;7.210;2022-07-30T03:57:07;16.60;99.90
2967;DHT22;1493;51.496;7.210;2022-07-30T03:59:34;16.60;99.90
2967;DHT22;1493;51.496;7.210;2022-07-30T04:02:02;16.60;99.90
2967;DHT22;1493;51.496;7.210;2022-07-30T04:04:29;16.60;99.90
2967;DHT22;1493;51.496;7.210;2022-07-30T04:06:56;16.60;99.90
2967;DHT22;1493;51.496;7.210;2022-07-30T04:09:23;16.60;99.90
2967;DHT22;1493;51.496;7.210;2022-07-30T04:11:50;16.60;99.90
2967;DHT22;1493;51.496;7.210;2022-07-30T04:14:18;16.60;99.90
2967;DHT22;1493;51.496;7.210;2022-07-30T04:16:48;16.50;99.90
2967;DHT22;1493;51.496;7.210;2022-07-30T04:19:34;16.60;99.90
2967;DHT22;1493;51.496;7.210;2022-07-30T04:22:02;16.60;99.90
2967;DHT22;1493;51.496;7.210;2022-07-30T04:24:30;16.50;99.90
2967;DHT22;1493;51.496;7.210;2022-07-30T04:26:58;16.50;99.90
2967;DHT22;1493;51.496;7.210;2022-07-30T04:29:27;16.50;99.90
2967;DHT22;1493;51.496;7.210;2022-07-30T04:31:54;16.60;99.90
2967;DHT22;1493;51.496;7.210;2022-07-30T04:34:21;16.60;99.90
2967;DHT22;1493;51.496;7.210;2022-07-30T04:36:48;16.60;99.90
2967;DHT22;1493;51.496;7.210;2022-07-30T04:39:15;16.60;99.90
2967;DHT22;1493;51.496;7.210;2022-07-30T04:41:42;16.70;99.90
2967;DHT22;1493;51.496;7.210;2022-07-30T04:44:09;16.70;99.90
2967;DHT22;1493;51.496;7.210;2022-07-30T04:46:37;16.70;99.90
2967;DHT22;1493;51.496;7.210;2022-07-30T04:49:04;16.80;99.90
2967;DHT22;1493;51.496;7.210;2022-07-30T04:51:32;16.80;99.90
2967;DHT22;1493;51.496;7.210;2022-07-30T04:54:01;16.90;99.90
2967;DHT22;1493;51.496;7.210;2022-07-30T04:56:29;16.90;99.90
2967;DHT22;1493;51.496;7.210;2022-07-30T04:58:58;17.00;99.90
2967;DHT22;1493;51.496;7.210;2022-07-30T05:01:30;17.00;99.90
2967;DHT22;1493;51.496;7.210;2022-07-30T05:04:00;17.10;99.90
2967;DHT22;1493;51.496;7.210;2022-07-30T05:06:27;17.20;99.90
2967;DHT22;1493;51.496;7.210;2022-07-30T05:08:56;17.20;99.90
2967;DHT22;1493;51.496;7.210;2022-07-30T05:11:23;17.30;99.90
2967;DHT22;1493;51.496;7.210;2022-07-30T05:13:50;17.30;99.90
2967;DHT22;1493;51.496;7.210;2022-07-30T05:16:17;17.30;99.90
2967;DHT22;1493;51.496;7.210;2022-07-30T05:18:44;17.30;99.90
2967;DHT22;1493;51.496;7.210;2022-07-30T05:21:12;17.30;99.90
2967;DHT22;1493;51.496;7.210;2022-07-30T05:23:39;17.40;99.90
2967;DHT22;1493;51.496;7.210;2022-07-30T05:26:06;17.40;99.90
2967;DHT22;1493;51.496;7.210;2022-07-30T05:28:32;17.60;99.90
2967;DHT22;1493;51.496;7.210;2022-07-30T05:30:59;17.60;99.90
2967;DHT22;1493;51.496;7.210;2022-07-30T05:33:26;17.60;99.90
2967;DHT22;1493;51.496;7.210;2022-07-30T05:35:53;17.60;99.90
2967;DHT22;1493;51.496;7.210;2022-07-30T05:38:21;17.50;99.90
2967;DHT22;1493;51.496;7.210;2022-07-30T05:40:49;17.60;99.90
2967;DHT22;1493;51.496;7.210;2022-07-30T05:43:16;17.60;99.90
2967;DHT22;1493;51.496;7.210;2022-07-30T05:45:43;17.70;99.90
2967;DHT22;1493;51.496;7.210;2022-07-30T05:48:10;17.80;99.90
2967;DHT22;1493;51.496;7.210;2022-07-30T05:50:37;17.70;99.90
2967;DHT22;1493;51.496;7.210;2022-07-30T05:53:04;17.70;99.90
2967;DHT22;1493;51.496;7.210;2022-07-30T05:55:32;17.70;99.90
2967;DHT22;1493;51.496;7.210;2022-07-30T05:57:59;17.60;99.90
2967;DHT22;1493;51.496;7.210;2022-07-30T06:00:25;17.80;99.90
2967;DHT22;1493;51.496;7.210;2022-07-30T06:02:52;17.70;99.90
2967;DHT22;1493;51.496;7.210;2022-07-30T06:05:19;17.70;99.90
2967;DHT22;1493;51.496;7.210;2022-07-30T06:07:46;17.70;99.90
2967;DHT22;1493;51.496;7.210;2022-07-30T06:10:13;17.70;99.90
2967;DHT22;1493;51.496;7.210;2022-07-30T06:12:41;17.80;99.90
2967;DHT22;1493;51.496;7.210;2022-07-30T06:15:09;17.90;99.90
2967;DHT22;1493;51.496;7.210;2022-07-30T06:17:40;17.80;99.90
2967;DHT22;1493;51.496;7.210;2022-07-30T06:20:09;17.90;99.90
2967;DHT22;1493;51.496;7.210;2022-07-30T06:22:36;18.00;99.90
2967;DHT22;1493;51.496;7.210;2022-07-30T06:25:04;18.00;99.90
2967;DHT22;1493;51.496;7.210;2022-07-30T06:27:31;18.10;99.90
2967;DHT22;1493;51.496;7.210;2022-07-30T06:30:00;18.30;99.90
2967;DHT22;1493;51.496;7.210;2022-07-30T06:32:27;18.40;99.90
2967;DHT22;1493;51.496;7.210;2022-07-30T06:34:54;18.30;99.90
2967;DHT22;1493;51.496;7.210;2022-07-30T06:37:21;18.40;99.90
2967;DHT22;1493;51.496;7.210;2022-07-30T06:39:48;18.30;99.90
2967;DHT22;1493;51.496;7.210;2022-07-30T06:42:15;18.30;99.90
2967;DHT22;1493;51.496;7.210;2022-07-30T06:44:42;18.40;99.90
2967;DHT22;1493;51.496;7.210;2022-07-30T06:47:10;18.50;99.90
2967;DHT22;1493;51.496;7.210;2022-07-30T06:49:37;18.50;99.90
2967;DHT22;1493;51.496;7.210;2022-07-30T06:52:05;18.40;99.90
2967;DHT22;1493;51.496;7.210;2022-07-30T06:54:32;18.40;99.90
2967;DHT22;1493;51.496;7.210;2022-07-30T06:56:59;18.40;99.90
2967;DHT22;1493;51.496;7.210;2022-07-30T06:59:26;18.30;99.90
2967;DHT22;1493;51.496;7.210;2022-07-30T07:01:53;18.30;99.90
2967;DHT22;1493;51.496;7.210;2022-07-30T07:04:21;18.40;99.90
2967;DHT22;1493;51.496;7.210;2022-07-30T07:06:48;18.50;99.90
2967;DHT22;1493;51.496;7.210;2022-07-30T07:09:15;18.50;99.90
2967;DHT22;1493;51.496;7.210;2022-07-30T07:11:42;18.70;99.90
2967;DHT22;1493;51.496;7.210;2022-07-30T07:14:09;18.70;99.90
2967;DHT22;1493;51.496;7.210;2022-07-30T07:16:36;18.70;99.90
2967;DHT22;1493;51.496;7.210;2022-07-30T07:19:02;18.80;99.90
2967;DHT22;1493;51.496;7.210;2022-07-30T07:21:31;18.80;99.90
2967;DHT22;1493;51.496;7.210;2022-07-30T07:23:58;18.90;99.90
2967;DHT22;1493;51.496;7.210;2022-07-30T07:26:27;18.90;99.90
2967;DHT22;1493;51.496;7.210;2022-07-30T07:28:56;18.80;99.90
2967;DHT22;1493;51.496;7.210;2022-07-30T07:31:23;18.90;99.90
2967;DHT22;1493;51.496;7.210;2022-07-30T07:33:50;18.90;99.90
2967;DHT22;1493;51.496;7.210;2022-07-30T07:36:18;19.10;99.90
2967;DHT22;1493;51.496;7.210;2022-07-30T07:38:47;19.10;99.90
2967;DHT22;1493;51.496;7.210;2022-07-30T07:41:14;19.20;99.90
2967;DHT22;1493;51.496;7.210;2022-07-30T07:43:41;19.20;99.90
2967;DHT22;1493;51.496;7.210;2022-07-30T07:46:08;19.10;99.90
2967;DHT22;1493;51.496;7.210;2022-07-30T07:48:39;19.10;99.90
2967;DHT22;1493;51.496;7.210;2022-07-30T07:51:06;19.00;99.90
2967;DHT22;1493;51.496;7.210;2022-07-30T07:53:33;19.00;99.90
2967;DHT22;1493;51.496;7.210;2022-07-30T07:56:01;18.90;99.90
2967;DHT22;1493;51.496;7.210;2022-07-30T07:58:33;19.00;99.90
2967;DHT22;1493;51.496;7.210;2022-07-30T08:00:59;18.90;99.90
2967;DHT22;1493;51.496;7.210;2022-07-30T08:03:26;19.00;99.90
2967;DHT22;1493;51.496;7.210;2022-07-30T08:05:53;19.00;99.90
2967;DHT22;1493;51.496;7.210;2022-07-30T08:08:23;19.00;99.90
2967;DHT22;1493;51.496;7.210;2022-07-30T08:10:50;19.10;99.90
2967;DHT22;1493;51.496;7.210;2022-07-30T08:13:18;19.20;99.90
2967;DHT22;1493;51.496;7.210;2022-07-30T08:15:45;19.40;99.90
2967;DHT22;1493;51.496;7.210;2022-07-30T08:18:12;19.70;99.90
2967;DHT22;1493;51.496;7.210;2022-07-30T08:20:39;19.80;99.90
2967;DHT22;1493;51.496;7.210;2022-07-30T08:23:06;19.90;99.90
2967;DHT22;1493;51.496;7.210;2022-07-30T08:25:33;20.20;99.90
2967;DHT22;1493;51.496;7.210;2022-07-30T08:28:00;20.20;99.90
2967;DHT22;1493;51.496;7.210;2022-07-30T08:30:29;20.20;99.90
2967;DHT22;1493;51.496;7.210;2022-07-30T08:32:56;20.20;99.90
2967;DHT22;1493;51.496;7.210;2022-07-30T08:35:23;20.20;99.90
2967;DHT22;1493;51.496;7.210;2022-07-30T08:37:50;19.90;99.90
2967;DHT22;1493;51.496;7.210;2022-07-30T08:40:18;19.80;99.90
2967;DHT22;1493;51.496;7.210;2022-07-30T08:42:45;20.20;99.90
2967;DHT22;1493;51.496;7.210;2022-07-30T08:45:12;20.50;99.90
2967;DHT22;1493;51.496;7.210;2022-07-30T08:47:44;20.60;99.90
2967;DHT22;1493;51.496;7.210;2022-07-30T08:50:17;20.80;99.90
2967;DHT22;1493;51.496;7.210;2022-07-30T08:52:43;21.00;99.90
2967;DHT22;1493;51.496;7.210;2022-07-30T08:55:16;21.10;99.90
2967;DHT22;1493;51.496;7.210;2022-07-30T08:57:46;21.10;99.90
2967;DHT22;1493;51.496;7.210;2022-07-30T09:00:14;21.50;99.90
2967;DHT22;1493;51.496;7.210;2022-07-30T09:02:43;21.50;99.90
2967;DHT22;1493;51.496;7.210;2022-07-30T09:05:11;21.70;99.90
2967;DHT22;1493;51.496;7.210;2022-07-30T09:07:39;21.80;99.90
2967;DHT22;1493;51.496;7.210;2022-07-30T09:10:07;21.90;99.90
2967;DHT22;1493;51.496;7.210;2022-07-30T09:12:37;21.90;99.90
2967;DHT22;1493;51.496;7.210;2022-07-30T09:15:09;22.00;99.90
2967;DHT22;1493;51.496;7.210;2022-07-30T09:17:50;22.50;99.90
2967;DHT22;1493;51.496;7.210;2022-07-30T09:20:18;22.50;99.90
2967;DHT22;1493;51.496;7.210;2022-07-30T09:22:46;22.80;99.90
2967;DHT22;1493;51.496;7.210;2022-07-30T09:25:32;23.00;99.90
2967;DHT22;1493;51.496;7.210;2022-07-30T09:27:59;23.30;99.90
2967;DHT22;1493;51.496;7.210;2022-07-30T09:30:27;23.30;99.90
2967;DHT22;1493;51.496;7.210;2022-07-30T09:33:09;23.30;99.90
2967;DHT22;1493;51.496;7.210;2022-07-30T09:35:37;23.20;99.90
2967;DHT22;1493;51.496;7.210;2022-07-30T09:38:05;23.30;99.90
2967;DHT22;1493;51.496;7.210;2022-07-30T09:40:32;23.30;99.90
2967;DHT22;1493;51.496;7.210;2022-07-30T09:43:04;23.50;99.90
2967;DHT22;1493;51.496;7.210;2022-07-30T09:45:31;23.80;99.90
2967;DHT22;1493;51.496;7.210;2022-07-30T09:47:58;24.10;99.90
2967;DHT22;1493;51.496;7.210;2022-07-30T09:50:27;24.20;99.90
2967;DHT22;1493;51.496;7.210;2022-07-30T09:53:03;24.20;99.90
2967;DHT22;1493;51.496;7.210;2022-07-30T09:55:31;24.70;99.90
2967;DHT22;1493;51.496;7.210;2022-07-30T09:58:00;24.70;99.90
2967;DHT22;1493;51.496;7.210;2022-07-30T10:00:37;24.60;99.90
2967;DHT22;1493;51.496;7.210;2022-07-30T10:03:15;24.70;99.90
2967;DHT22;1493;51.496;7.210;2022-07-30T10:05:50;24.90;99.90
2967;DHT22;1493;51.496;7.210;2022-07-30T10:08:18;25.20;99.90
2967;DHT22;1493;51.496;7.210;2022-07-30T10:10:45;25.40;99.90
2967;DHT22;1493;51.496;7.210;2022-07-30T10:13:15;25.50;99.90
2967;DHT22;1493;51.496;7.210;2022-07-30T10:15:44;25.60;99.90
2967;DHT22;1493;51.496;7.210;2022-07-30T10:18:12;25.60;99.90
2967;DHT22;1493;51.496;7.210;2022-07-30T10:20:39;25.20;99.90
2967;DHT22;1493;51.496;7.210;2022-07-30T10:23:09;25.50;99.90
2967;DHT22;1493;51.496;7.210;2022-07-30T10:25:38;25.50;99.90
2967;DHT22;1493;51.496;7.210;2022-07-30T10:28:05;25.50;99.90
2967;DHT22;1493;51.496;7.210;2022-07-30T10:30:32;25.80;99.90
2967;DHT22;1493;51.496;7.210;2022-07-30T10:33:01;26.20;99.90
2967;DHT22;1493;51.496;7.210;2022-07-30T10:35:28;26.30;99.90
2967;DHT22;1493;51.496;7.210;2022-07-30T10:37:58;26.50;99.90
2967;DHT22;1493;51.496;7.210;2022-07-30T10:40:32;26.60;99.90
2967;DHT22;1493;51.496;7.210;2022-07-30T10:43:16;26.10;99.90
2967;DHT22;1493;51.496;7.210;2022-07-30T10:45:55;26.40;99.90
2967;DHT22;1493;51.496;7.210;2022-07-30T10:48:25;26.40;99.90
2967;DHT22;1493;51.496;7.210;2022-07-30T10:50:54;26.60;99.90
2967;DHT22;1493;51.496;7.210;2022-07-30T10:53:35;26.60;99.90
2967;DHT22;1493;51.496;7.210;2022-07-30T10:56:12;27.00;99.90
2967;DHT22;1493;51.496;7.210;2022-07-30T10:59:02;27.00;99.90
2967;DHT22;1493;51.496;7.210;2022-07-30T11:02:06;27.10;99.90
2967;DHT22;1493;51.496;7.210;2022-07-30T11:04:33;27.40;99.90
2967;DHT22;1493;51.496;7.210;2022-07-30T11:07:26;27.80;99.90
2967;DHT22;1493;51.496;7.210;2022-07-30T11:09:54;27.90;99.90
2967;DHT22;1493;51.496;7.210;2022-07-30T11:12:54;27.80;99.90
2967;DHT22;1493;51.496;7.210;2022-07-30T11:15:21;28.00;99.90
2967;DHT22;1493;51.496;7.210;2022-07-30T11:18:00;28.40;99.90
2967;DHT22;1493;51.496;7.210;2022-07-30T11:20:29;28.50;99.90
2967;DHT22;1493;51.496;7.210;2022-07-30T11:23:33;28.30;99.90
2967;DHT22;1493;51.496;7.210;2022-07-30T11:25:58;28.20;99.90
2967;DHT22;1493;51.496;7.210;2022-07-30T11:28:38;28.40;99.90
2967;DHT22;1493;51.496;7.210;2022-07-30T11:31:33;28.50;99.90
2967;DHT22;1493;51.496;7.210;2022-07-30T11:34:26;28.30;99.90
2967;DHT22;1493;51.496;7.210;2022-07-30T11:37:03;28.40;99.90
2967;DHT22;1493;51.496;7.210;2022-07-30T11:40:05;28.40;99.90
2967;DHT22;1493;51.496;7.210;2022-07-30T11:42:33;28.60;99.90
2967;DHT22;1493;51.496;7.210;2022-07-30T11:45:20;28.90;99.90
2967;DHT22;1493;51.496;7.210;2022-07-30T11:47:52;28.90;97.80
2967;DHT22;1493;51.496;7.210;2022-07-30T11:50:20;28.90;99.90
2967;DHT22;1493;51.496;7.210;2022-07-30T11:52:48;29.10;99.90
2967;DHT22;1493;51.496;7.210;2022-07-30T11:55:21;29.30;99.90
2967;DHT22;1493;51.496;7.210;2022-07-30T11:57:50;29.00;95.90
2967;DHT22;1493;51.496;7.210;2022-07-30T12:00:17;29.30;94.00
2967;DHT22;1493;51.496;7.210;2022-07-30T12:02:46;28.80;92.60
2967;DHT22;1493;51.496;7.210;2022-07-30T12:05:13;28.30;92.20
2967;DHT22;1493;51.496;7.210;2022-07-30T12:07:40;29.30;99.90
2967;DHT22;1493;51.496;7.210;2022-07-30T12:10:14;30.00;99.90
2967;DHT22;1493;51.496;7.210;2022-07-30T12:12:41;29.90;93.80
2967;DHT22;1493;51.496;7.210;2022-07-30T12:15:10;29.90;96.80
2967;DHT22;1493;51.496;7.210;2022-07-30T12:17:41;30.40;93.20
2967;DHT22;1493;51.496;7.210;2022-07-30T12:20:17;30.40;88.90
2967;DHT22;1493;51.496;7.210;2022-07-30T12:22:45;30.40;89.90
2967;DHT22;1493;51.496;7.210;2022-07-30T12:25:13;30.60;90.20
2967;DHT22;1493;51.496;7.210;2022-07-30T12:27:44;31.20;92.70
2967;DHT22;1493;51.496;7.210;2022-07-30T12:30:12;31.00;91.10
2967;DHT22;1493;51.496;7.210;2022-07-30T12:32:40;30.80;89.10
2967;DHT22;1493;51.496;7.210;2022-07-30T12:35:07;30.60;91.00
2967;DHT22;1493;51.496;7.210;2022-07-30T12:37:36;30.50;81.50
2967;DHT22;1493;51.496;7.210;2022-07-30T12:40:08;30.10;85.40
2967;DHT22;1493;51.496;7.210;2022-07-30T12:42:36;29.90;81.60
2967;DHT22;1493;51.496;7.210;2022-07-30T12:45:06;30.20;91.00
2967;DHT22;1493;51.496;7.210;2022-07-30T12:47:50;29.90;81.00
2967;DHT22;1493;51.496;7.210;2022-07-30T12:50:17;30.00;93.60
2967;DHT22;1493;51.496;7.210;2022-07-30T12:52:49;30.30;93.10
2967;DHT22;1493;51.496;7.210;2022-07-30T12:55:18;29.90;84.90
2967;DHT22;1493;51.496;7.210;2022-07-30T12:57:55;29.80;76.40
2967;DHT22;1493;51.496;7.210;2022-07-30T13:00:23;29.80;86.10
2967;DHT22;1493;51.496;7.210;2022-07-30T13:02:50;30.00;82.50
2967;DHT22;1493;51.496;7.210;2022-07-30T13:05:17;29.90;76.10
2967;DHT22;1493;51.496;7.210;2022-07-30T13:07:56;30.10;75.10
2967;DHT22;1493;51.496;7.210;2022-07-30T13:10:23;30.40;85.60
2967;DHT22;1493;51.496;7.210;2022-07-30T13:12:50;30.60;85.20
2967;DHT22;1493;51.496;7.210;2022-07-30T13:15:18;30.60;77.10
2967;DHT22;1493;51.496;7.210;2022-07-30T13:17:48;30.10;72.40
2967;DHT22;1493;51.496;7.210;2022-07-30T13:20:18;30.10;74.10
2967;DHT22;1493;51.496;7.210;2022-07-30T13:22:48;30.20;77.50
2967;DHT22;1493;51.496;7.210;2022-07-30T13:25:16;29.60;69.60
2967;DHT22;1493;51.496;7.210;2022-07-30T13:27:43;29.80;75.10
2967;DHT22;1493;51.496;7.210;2022-07-30T13:30:10;29.90;72.20
2967;DHT22;1493;51.496;7.210;2022-07-30T13:32:37;30.10;81.00
2967;DHT22;1493;51.496;7.210;2022-07-30T13:35:05;29.90;75.20
2967;DHT22;1493;51.496;7.210;2022-07-30T13:37:32;30.10;87.00
2967;DHT22;1493;51.496;7.210;2022-07-30T13:39:59;30.00;77.60
2967;DHT22;1493;51.496;7.210;2022-07-30T13:42:27;29.40;81.40
2967;DHT22;1493;51.496;7.210;2022-07-30T13:44:54;29.70;86.60
2967;DHT22;1493;51.496;7.210;2022-07-30T13:47:21;29.90;78.20
2967;DHT22;1493;51.496;7.210;2022-07-30T13:49:48;29.40;76.10
2967;DHT22;1493;51.496;7.210;2022-07-30T13:52:15;29.20;83.50
2967;DHT22;1493;51.496;7.210;2022-07-30T13:54:42;29.00;86.30
2967;DHT22;1493;51.496;7.210;2022-07-30T13:57:09;29.30;81.70
2967;DHT22;1493;51.496;7.210;2022-07-30T13:59:37;29.70;85.90
2967;DHT22;1493;51.496;7.210;2022-07-30T14:02:07;29.80;85.80
2967;DHT22;1493;51.496;7.210;2022-07-30T14:04:34;30.10;89.10
2967;DHT22;1493;51.496;7.210;2022-07-30T14:07:01;30.00;82.10
2967;DHT22;1493;51.496;7.210;2022-07-30T14:09:28;30.40;88.20
2967;DHT22;1493;51.496;7.210;2022-07-30T14:11:55;30.70;80.50
2967;DHT22;1493;51.496;7.210;2022-07-30T14:14:21;31.10;79.00
2967;DHT22;1493;51.496;7.210;2022-07-30T14:16:50;31.30;85.30
2967;DHT22;1493;51.496;7.210;2022-07-30T14:19:17;31.30;74.00
2967;DHT22;1493;51.496;7.210;2022-07-30T14:21:44;31.10;76.70
2967;DHT22;1493;51.496;7.210;2022-07-30T14:24:11;31.30;77.10
2967;DHT22;1493;51.496;7.210;2022-07-30T14:26:41;31.50;86.40
2967;DHT22;1493;51.496;7.210;2022-07-30T14:29:08;32.00;80.00
2967;DHT22;1493;51.496;7.210;2022-07-30T14:31:35;32.00;76.20
2967;DHT22;1493;51.496;7.210;2022-07-30T14:34:03;32.60;73.20
2967;DHT22;1493;51.496;7.210;2022-07-30T14:36:30;32.90;85.30
2967;DHT22;1493;51.496;7.210;2022-07-30T14:38:57;33.30;75.20
2967;DHT22;1493;51.496;7.210;2022-07-30T14:41:25;33.60;72.40
2967;DHT22;1493;51.496;7.210;2022-07-30T14:43:52;33.00;78.50
2967;DHT22;1493;51.496;7.210;2022-07-30T14:46:19;33.30;67.80
2967;DHT22;1493;51.496;7.210;2022-07-30T14:48:46;32.60;69.20
2967;DHT22;1493;51.496;7.210;2022-07-30T14:51:15;31.70;73.30
2967;DHT22;1493;51.496;7.210;2022-07-30T14:53:41;32.30;72.50
2967;DHT22;1493;51.496;7.210;2022-07-30T14:56:08;32.30;74.80
2967;DHT22;1493;51.496;7.210;2022-07-30T14:58:36;32.50;72.40
2967;DHT22;1493;51.496;7.210;2022-07-30T15:01:03;31.90;67.20
2967;DHT22;1493;51.496;7.210;2022-07-30T15:03:32;32.40;67.60
2967;DHT22;1493;51.496;7.210;2022-07-30T15:06:00;32.80;64.70
2967;DHT22;1493;51.496;7.210;2022-07-30T15:08:28;33.30;65.40
2967;DHT22;1493;51.496;7.210;2022-07-30T15:10:55;33.80;73.50
2967;DHT22;1493;51.496;7.210;2022-07-30T15:13:22;33.80;67.90
2967;DHT22;1493;51.496;7.210;2022-07-30T15:15:52;33.60;65.50
2967;DHT22;1493;51.496;7.210;2022-07-30T15:18:19;33.80;66.20
2967;DHT22;1493;51.496;7.210;2022-07-30T15:20:46;33.90;59.80
2967;DHT22;1493;51.496;7.210;2022-07-30T15:23:13;34.40;59.30
2967;DHT22;1493;51.496;7.210;2022-07-30T15:25:41;34.20;58.50
2967;DHT22;1493;51.496;7.210;2022-07-30T15:28:08;34.60;61.20
2967;DHT22;1493;51.496;7.210;2022-07-30T15:30:36;35.30;56.40
2967;DHT22;1493;51.496;7.210;2022-07-30T15:33:03;35.10;59.40
2967;DHT22;1493;51.496;7.210;2022-07-30T15:35:30;35.10;57.70
2967;DHT22;1493;51.496;7.210;2022-07-30T15:37:57;35.20;55.50
2967;DHT22;1493;51.496;7.210;2022-07-30T15:40:24;35.80;59.20
2967;DHT22;1493;51.496;7.210;2022-07-30T15:42:52;35.10;56.60
2967;DHT22;1493;51.496;7.210;2022-07-30T15:45:20;34.80;56.40
2967;DHT22;1493;51.496;7.210;2022-07-30T15:47:48;34.50;58.70
2967;DHT22;1493;51.496;7.210;2022-07-30T15:50:15;34.40;57.90
2967;DHT22;1493;51.496;7.210;2022-07-30T15:52:42;34.40;59.50
2967;DHT22;1493;51.496;7.210;2022-07-30T15:55:09;34.80;58.90
2967;DHT22;1493;51.496;7.210;2022-07-30T15:57:36;34.60;57.20
2967;DHT22;1493;51.496;7.210;2022-07-30T16:00:06;33.80;57.10
2967;DHT22;1493;51.496;7.210;2022-07-30T16:02:33;33.10;57.60
2967;DHT22;1493;51.496;7.210;2022-07-30T16:05:00;33.30;57.50
2967;DHT22;1493;51.496;7.210;2022-07-30T16:07:27;33.40;58.70
2967;DHT22;1493;51.496;7.210;2022-07-30T16:09:55;33.20;57.90
2967;DHT22;1493;51.496;7.210;2022-07-30T16:12:21;32.60;57.20
2967;DHT22;1493;51.496;7.210;2022-07-30T16:14:48;32.10;57.90